sensor_id;sensor_type;location;lat;lon;timestamp;P1;durP1;ratioP1;P2;durP2;ratioP2
6823;SDS011;58633;49.470;11.004;2023-01-09T00:01:28;10.57;;;8.30;;
6823;SDS011;58633;49.470;11.004;2023-01-09T00:03:56;12.43;;;8.53;;
6823;SDS011;58633;49.470;11.004;2023-01-09T00:06:22;13.17;;;8.77;;
6823;SDS011;58633;49.470;11.004;2023-01-09T00:08:48;10.47;;;8.07;;
6823;SDS011;58633;49.470;11.004;2023-01-09T00:11:14;11.93;;;8.53;;
6823;SDS011;58633;49.470;11.004;2023-01-09T00:13:39;12.83;;;8.83;;
6823;SDS011;58633;49.470;11.004;2023-01-09T00:16:05;12.13;;;8.73;;
6823;SDS011;58633;49.470;11.004;2023-01-09T00:18:32;12.97;;;9.10;;
6823;SDS011;58633;49.470;11.004;2023-01-09T00:20:59;13.17;;;8.80;;
6823;SDS011;58633;49.470;11.004;2023-01-09T00:23:25;11.53;;;8.73;;
6823;SDS011;58633;49.470;11.004;2023-01-09T00:25:59;14.67;;;9.53;;
6823;SDS011;58633;49.470;11.004;2023-01-09T00:28:26;14.10;;;9.83;;
6823;SDS011;58633;49.470;11.004;2023-01-09T00:30:56;12.97;;;9.03;;
6823;SDS011;58633;49.470;11.004;2023-01-09T00:33:24;12.53;;;8.77;;
6823;SDS011;58633;49.470;11.004;2023-01-09T00:35:52;13.40;;;9.57;;
6823;SDS011;58633;49.470;11.004;2023-01-09T00:38:18;13.10;;;9.60;;
6823;SDS011;58633;49.470;11.004;2023-01-09T00:40:43;14.97;;;9.67;;
6823;SDS011;58633;49.470;11.004;2023-01-09T00:43:09;12.80;;;9.73;;
6823;SDS011;58633;49.470;11.004;2023-01-09T00:45:34;14.93;;;10.00;;
6823;SDS011;58633;49.470;11.004;2023-01-09T00:48:01;14.13;;;9.83;;
6823;SDS011;58633;49.470;11.004;2023-01-09T00:50:31;14.67;;;9.90;;
6823;SDS011;58633;49.470;11.004;2023-01-09T00:53:00;15.87;;;10.33;;
6823;SDS011;58633;49.470;11.004;2023-01-09T00:55:30;15.07;;;10.20;;
6823;SDS011;58633;49.470;11.004;2023-01-09T00:57:58;12.80;;;9.37;;
6823;SDS011;58633;49.470;11.004;2023-01-09T01:00:23;13.83;;;10.03;;
6823;SDS011;58633;49.470;11.004;2023-01-09T01:02:49;15.03;;;10.17;;
6823;SDS011;58633;49.470;11.004;2023-01-09T01:05:14;14.50;;;9.43;;
6823;SDS011;58633;49.470;11.004;2023-01-09T01:07:58;15.00;;;10.33;;
6823;SDS011;58633;49.470;11.004;2023-01-09T01:10:24;14.77;;;10.30;;
6823;SDS011;58633;49.470;11.004;2023-01-09T01:12:50;17.17;;;11.13;;
6823;SDS011;58633;49.470;11.004;2023-01-09T01:15:17;13.80;;;9.93;;
6823;SDS011;58633;49.470;11.004;2023-01-09T01:17:43;15.53;;;10.67;;
6823;SDS011;58633;49.470;11.004;2023-01-09T01:20:10;15.40;;;10.37;;
6823;SDS011;58633;49.470;11.004;2023-01-09T01:22:38;15.53;;;9.97;;
6823;SDS011;58633;49.470;11.004;2023-01-09T01:25:06;15.90;;;10.43;;
6823;SDS011;58633;49.470;11.004;2023-01-09T01:27:32;15.73;;;10.27;;
6823;SDS011;58633;49.470;11.004;2023-01-09T01:29:57;14.40;;;9.63;;
6823;SDS011;58633;49.470;11.004;2023-01-09T01:32:23;15.70;;;10.37;;
6823;SDS011;58633;49.470;11.004;2023-01-09T01:34:48;15.43;;;10.50;;
6823;SDS011;58633;49.470;11.004;2023-01-09T01:37:14;16.27;;;10.80;;
6823;SDS011;58633;49.470;11.004;2023-01-09T01:39:39;17.10;;;10.37;;
6823;SDS011;58633;49.470;11.004;2023-01-09T01:42:05;16.10;;;11.07;;
6823;SDS011;58633;49.470;11.004;2023-01-09T01:50:17;17.27;;;11.37;;
6823;SDS011;58633;49.470;11.004;2023-01-09T01:52:44;16.57;;;10.80;;
6823;SDS011;58633;49.470;11.004;2023-01-09T01:55:14;17.63;;;11.20;;
6823;SDS011;58633;49.470;11.004;2023-01-09T01:57:41;18.07;;;11.00;;
6823;SDS011;58633;49.470;11.004;2023-01-09T02:00:11;18.27;;;11.70;;
6823;SDS011;58633;49.470;11.004;2023-01-09T02:02:37;18.60;;;11.60;;
6823;SDS011;58633;49.470;11.004;2023-01-09T02:05:03;15.70;;;10.27;;
6823;SDS011;58633;49.470;11.004;2023-01-09T02:07:29;15.57;;;10.50;;
6823;SDS011;58633;49.470;11.004;2023-01-09T02:09:55;18.27;;;11.30;;
6823;SDS011;58633;49.470;11.004;2023-01-09T02:12:22;16.00;;;10.43;;
6823;SDS011;58633;49.470;11.004;2023-01-09T02:14:51;15.63;;;10.77;;
6823;SDS011;58633;49.470;11.004;2023-01-09T02:17:37;17.17;;;11.27;;
6823;SDS011;58633;49.470;11.004;2023-01-09T02:31:45;13.00;;;9.43;;
6823;SDS011;58633;49.470;11.004;2023-01-09T02:40:19;16.63;;;10.73;;
6823;SDS011;58633;49.470;11.004;2023-01-09T02:42:46;15.23;;;10.40;;
6823;SDS011;58633;49.470;11.004;2023-01-09T02:45:12;17.10;;;10.33;;
6823;SDS011;58633;49.470;11.004;2023-01-09T02:47:42;16.67;;;10.10;;
6823;SDS011;58633;49.470;11.004;2023-01-09T02:50:11;17.33;;;10.27;;
6823;SDS011;58633;49.470;11.004;2023-01-09T02:56:00;15.47;;;10.03;;
6823;SDS011;58633;49.470;11.004;2023-01-09T03:04:03;13.17;;;8.83;;
6823;SDS011;58633;49.470;11.004;2023-01-09T03:06:46;16.53;;;9.63;;
6823;SDS011;58633;49.470;11.004;2023-01-09T03:09:17;12.73;;;8.93;;
6823;SDS011;58633;49.470;11.004;2023-01-09T03:11:47;15.00;;;10.00;;
6823;SDS011;58633;49.470;11.004;2023-01-09T03:14:16;16.03;;;10.27;;
6823;SDS011;58633;49.470;11.004;2023-01-09T03:16:45;15.20;;;9.60;;
6823;SDS011;58633;49.470;11.004;2023-01-09T03:19:15;14.50;;;9.60;;
6823;SDS011;58633;49.470;11.004;2023-01-09T03:21:44;14.20;;;9.73;;
6823;SDS011;58633;49.470;11.004;2023-01-09T03:24:11;13.90;;;9.53;;
6823;SDS011;58633;49.470;11.004;2023-01-09T03:26:36;15.17;;;9.97;;
6823;SDS011;58633;49.470;11.004;2023-01-09T03:29:02;14.53;;;9.67;;
6823;SDS011;58633;49.470;11.004;2023-01-09T03:31:28;16.63;;;10.30;;
6823;SDS011;58633;49.470;11.004;2023-01-09T03:33:54;14.23;;;9.47;;
6823;SDS011;58633;49.470;11.004;2023-01-09T03:36:20;16.87;;;10.03;;
6823;SDS011;58633;49.470;11.004;2023-01-09T03:38:46;15.20;;;9.63;;
6823;SDS011;58633;49.470;11.004;2023-01-09T03:41:12;14.00;;;9.83;;
6823;SDS011;58633;49.470;11.004;2023-01-09T03:43:38;15.20;;;10.30;;
6823;SDS011;58633;49.470;11.004;2023-01-09T03:46:03;13.17;;;9.30;;
6823;SDS011;58633;49.470;11.004;2023-01-09T03:48:29;17.30;;;10.73;;
6823;SDS011;58633;49.470;11.004;2023-01-09T03:50:55;14.97;;;10.53;;
6823;SDS011;58633;49.470;11.004;2023-01-09T03:53:22;15.27;;;9.77;;
6823;SDS011;58633;49.470;11.004;2023-01-09T03:55:50;15.93;;;10.50;;
6823;SDS011;58633;49.470;11.004;2023-01-09T03:58:17;15.53;;;10.50;;
6823;SDS011;58633;49.470;11.004;2023-01-09T04:00:44;17.53;;;10.97;;
6823;SDS011;58633;49.470;11.004;2023-01-09T04:03:12;15.73;;;10.27;;
6823;SDS011;58633;49.470;11.004;2023-01-09T04:05:39;15.40;;;10.23;;
6823;SDS011;58633;49.470;11.004;2023-01-09T04:08:04;15.03;;;10.20;;
6823;SDS011;58633;49.470;11.004;2023-01-09T04:10:30;15.73;;;10.90;;
6823;SDS011;58633;49.470;11.004;2023-01-09T04:12:55;16.20;;;10.33;;
6823;SDS011;58633;49.470;11.004;2023-01-09T04:15:21;16.57;;;10.97;;
6823;SDS011;58633;49.470;11.004;2023-01-09T04:17:47;16.37;;;10.40;;
6823;SDS011;58633;49.470;11.004;2023-01-09T04:20:13;15.37;;;10.17;;
6823;SDS011;58633;49.470;11.004;2023-01-09T04:22:38;15.13;;;10.43;;
6823;SDS011;58633;49.470;11.004;2023-01-09T04:25:04;17.20;;;10.80;;
6823;SDS011;58633;49.470;11.004;2023-01-09T04:27:30;15.30;;;10.07;;
6823;SDS011;58633;49.470;11.004;2023-01-09T04:29:56;15.30;;;10.47;;
6823;SDS011;58633;49.470;11.004;2023-01-09T04:32:21;15.20;;;10.53;;
6823;SDS011;58633;49.470;11.004;2023-01-09T04:34:47;14.87;;;10.20;;
6823;SDS011;58633;49.470;11.004;2023-01-09T04:37:12;19.93;;;10.57;;
6823;SDS011;58633;49.470;11.004;2023-01-09T04:39:38;15.33;;;9.90;;
6823;SDS011;58633;49.470;11.004;2023-01-09T04:42:07;15.83;;;10.93;;
6823;SDS011;58633;49.470;11.004;2023-01-09T04:44:33;15.87;;;10.50;;
6823;SDS011;58633;49.470;11.004;2023-01-09T04:46:59;14.20;;;9.93;;
6823;SDS011;58633;49.470;11.004;2023-01-09T04:49:24;14.60;;;9.80;;
6823;SDS011;58633;49.470;11.004;2023-01-09T04:51:50;15.23;;;10.40;;
6823;SDS011;58633;49.470;11.004;2023-01-09T04:54:16;15.60;;;10.60;;
6823;SDS011;58633;49.470;11.004;2023-01-09T04:56:42;15.40;;;10.30;;
6823;SDS011;58633;49.470;11.004;2023-01-09T04:59:07;14.80;;;10.17;;
6823;SDS011;58633;49.470;11.004;2023-01-09T05:01:33;15.37;;;10.47;;
6823;SDS011;58633;49.470;11.004;2023-01-09T05:03:59;15.07;;;10.50;;
6823;SDS011;58633;49.470;11.004;2023-01-09T05:06:25;15.77;;;10.17;;
6823;SDS011;58633;49.470;11.004;2023-01-09T05:08:50;15.13;;;10.67;;
6823;SDS011;58633;49.470;11.004;2023-01-09T05:11:16;15.10;;;10.37;;
6823;SDS011;58633;49.470;11.004;2023-01-09T05:13:42;16.60;;;10.47;;
6823;SDS011;58633;49.470;11.004;2023-01-09T05:16:07;16.90;;;10.43;;
6823;SDS011;58633;49.470;11.004;2023-01-09T05:18:33;13.97;;;10.53;;
6823;SDS011;58633;49.470;11.004;2023-01-09T05:20:58;17.33;;;10.53;;
6823;SDS011;58633;49.470;11.004;2023-01-09T05:23:24;15.63;;;10.20;;
6823;SDS011;58633;49.470;11.004;2023-01-09T05:25:50;14.80;;;10.00;;
6823;SDS011;58633;49.470;11.004;2023-01-09T05:28:15;14.57;;;9.93;;
6823;SDS011;58633;49.470;11.004;2023-01-09T05:30:41;13.77;;;9.80;;
6823;SDS011;58633;49.470;11.004;2023-01-09T05:33:07;17.03;;;10.77;;
6823;SDS011;58633;49.470;11.004;2023-01-09T05:35:32;13.63;;;9.63;;
6823;SDS011;58633;49.470;11.004;2023-01-09T05:37:58;15.20;;;9.97;;
6823;SDS011;58633;49.470;11.004;2023-01-09T05:40:23;15.13;;;9.60;;
6823;SDS011;58633;49.470;11.004;2023-01-09T05:42:49;13.63;;;9.53;;
6823;SDS011;58633;49.470;11.004;2023-01-09T05:45:14;14.40;;;9.20;;
6823;SDS011;58633;49.470;11.004;2023-01-09T05:47:41;11.93;;;8.47;;
6823;SDS011;58633;49.470;11.004;2023-01-09T05:50:09;12.97;;;8.73;;
6823;SDS011;58633;49.470;11.004;2023-01-09T05:52:35;9.87;;;7.17;;
6823;SDS011;58633;49.470;11.004;2023-01-09T05:55:00;10.77;;;7.50;;
6823;SDS011;58633;49.470;11.004;2023-01-09T05:57:26;9.23;;;6.50;;
6823;SDS011;58633;49.470;11.004;2023-01-09T05:59:52;8.40;;;5.70;;
6823;SDS011;58633;49.470;11.004;2023-01-09T06:02:18;6.43;;;4.80;;
6823;SDS011;58633;49.470;11.004;2023-01-09T06:04:43;5.07;;;3.73;;
6823;SDS011;58633;49.470;11.004;2023-01-09T06:07:09;3.17;;;2.87;;
6823;SDS011;58633;49.470;11.004;2023-01-09T06:09:35;2.60;;;2.37;;
6823;SDS011;58633;49.470;11.004;2023-01-09T06:12:00;2.07;;;1.53;;
6823;SDS011;58633;49.470;11.004;2023-01-09T06:14:25;1.40;;;1.30;;
6823;SDS011;58633;49.470;11.004;2023-01-09T06:16:51;1.40;;;1.27;;
6823;SDS011;58633;49.470;11.004;2023-01-09T06:19:17;1.63;;;1.10;;
6823;SDS011;58633;49.470;11.004;2023-01-09T06:21:42;2.33;;;1.13;;
6823;SDS011;58633;49.470;11.004;2023-01-09T06:24:08;1.73;;;1.43;;
6823;SDS011;58633;49.470;11.004;2023-01-09T06:26:33;1.30;;;1.10;;
6823;SDS011;58633;49.470;11.004;2023-01-09T06:28:59;1.50;;;1.10;;
6823;SDS011;58633;49.470;11.004;2023-01-09T06:31:25;1.00;;;1.00;;
6823;SDS011;58633;49.470;11.004;2023-01-09T06:33:51;0.83;;;0.83;;
6823;SDS011;58633;49.470;11.004;2023-01-09T06:36:17;0.80;;;0.80;;
6823;SDS011;58633;49.470;11.004;2023-01-09T06:38:43;0.70;;;0.70;;
6823;SDS011;58633;49.470;11.004;2023-01-09T06:41:08;0.70;;;0.70;;
6823;SDS011;58633;49.470;11.004;2023-01-09T06:43:34;0.60;;;0.60;;
6823;SDS011;58633;49.470;11.004;2023-01-09T06:45:59;0.60;;;0.60;;
6823;SDS011;58633;49.470;11.004;2023-01-09T06:48:25;0.70;;;0.70;;
6823;SDS011;58633;49.470;11.004;2023-01-09T06:50:51;0.77;;;0.77;;
6823;SDS011;58633;49.470;11.004;2023-01-09T06:53:17;0.60;;;0.60;;
6823;SDS011;58633;49.470;11.004;2023-01-09T06:55:43;0.70;;;0.70;;
6823;SDS011;58633;49.470;11.004;2023-01-09T06:58:09;0.77;;;0.77;;
6823;SDS011;58633;49.470;11.004;2023-01-09T07:00:35;0.77;;;0.77;;
6823;SDS011;58633;49.470;11.004;2023-01-09T07:03:01;0.93;;;0.70;;
6823;SDS011;58633;49.470;11.004;2023-01-09T07:05:27;0.70;;;0.70;;
6823;SDS011;58633;49.470;11.004;2023-01-09T07:07:52;0.80;;;0.80;;
6823;SDS011;58633;49.470;11.004;2023-01-09T07:10:18;0.70;;;0.70;;
6823;SDS011;58633;49.470;11.004;2023-01-09T07:12:44;0.70;;;0.70;;
6823;SDS011;58633;49.470;11.004;2023-01-09T07:15:09;0.80;;;0.80;;
6823;SDS011;58633;49.470;11.004;2023-01-09T07:17:35;0.90;;;0.90;;
6823;SDS011;58633;49.470;11.004;2023-01-09T07:20:01;0.77;;;0.77;;
6823;SDS011;58633;49.470;11.004;2023-01-09T07:22:26;0.83;;;0.70;;
6823;SDS011;58633;49.470;11.004;2023-01-09T07:24:52;1.03;;;0.70;;
6823;SDS011;58633;49.470;11.004;2023-01-09T07:27:17;2.07;;;0.90;;
6823;SDS011;58633;49.470;11.004;2023-01-09T07:29:44;1.10;;;0.83;;
6823;SDS011;58633;49.470;11.004;2023-01-09T07:32:09;0.80;;;0.80;;
6823;SDS011;58633;49.470;11.004;2023-01-09T07:34:35;0.90;;;0.90;;
6823;SDS011;58633;49.470;11.004;2023-01-09T07:37:00;1.00;;;1.00;;
6823;SDS011;58633;49.470;11.004;2023-01-09T07:39:26;1.50;;;0.80;;
6823;SDS011;58633;49.470;11.004;2023-01-09T07:41:51;1.57;;;0.93;;
6823;SDS011;58633;49.470;11.004;2023-01-09T07:44:17;1.00;;;0.90;;
6823;SDS011;58633;49.470;11.004;2023-01-09T07:46:43;1.10;;;0.83;;
6823;SDS011;58633;49.470;11.004;2023-01-09T07:49:08;0.80;;;0.80;;
6823;SDS011;58633;49.470;11.004;2023-01-09T07:51:34;1.13;;;0.90;;
6823;SDS011;58633;49.470;11.004;2023-01-09T07:53:59;1.00;;;0.90;;
6823;SDS011;58633;49.470;11.004;2023-01-09T07:56:25;0.80;;;0.80;;
6823;SDS011;58633;49.470;11.004;2023-01-09T07:58:50;1.00;;;0.80;;
6823;SDS011;58633;49.470;11.004;2023-01-09T08:01:16;0.80;;;0.80;;
6823;SDS011;58633;49.470;11.004;2023-01-09T08:03:41;0.97;;;0.87;;
6823;SDS011;58633;49.470;11.004;2023-01-09T08:06:07;1.37;;;0.80;;
6823;SDS011;58633;49.470;11.004;2023-01-09T08:08:34;1.10;;;0.93;;
6823;SDS011;58633;49.470;11.004;2023-01-09T08:10:59;2.77;;;0.80;;
6823;SDS011;58633;49.470;11.004;2023-01-09T08:13:25;3.90;;;1.10;;
6823;SDS011;58633;49.470;11.004;2023-01-09T08:15:50;1.80;;;0.67;;
6823;SDS011;58633;49.470;11.004;2023-01-09T08:18:16;1.40;;;0.83;;
6823;SDS011;58633;49.470;11.004;2023-01-09T08:20:41;1.17;;;0.80;;
6823;SDS011;58633;49.470;11.004;2023-01-09T08:23:07;0.97;;;0.70;;
6823;SDS011;58633;49.470;11.004;2023-01-09T08:25:32;4.10;;;1.23;;
6823;SDS011;58633;49.470;11.004;2023-01-09T08:27:58;4.43;;;1.10;;
6823;SDS011;58633;49.470;11.004;2023-01-09T08:30:23;0.80;;;0.80;;
6823;SDS011;58633;49.470;11.004;2023-01-09T08:32:49;1.73;;;0.80;;
6823;SDS011;58633;49.470;11.004;2023-01-09T08:35:15;1.67;;;0.77;;
6823;SDS011;58633;49.470;11.004;2023-01-09T08:37:42;1.23;;;0.80;;
6823;SDS011;58633;49.470;11.004;2023-01-09T08:40:11;3.37;;;1.07;;
6823;SDS011;58633;49.470;11.004;2023-01-09T08:42:37;3.73;;;1.10;;
6823;SDS011;58633;49.470;11.004;2023-01-09T08:45:22;1.07;;;0.93;;
6823;SDS011;58633;49.470;11.004;2023-01-09T08:48:06;3.27;;;1.40;;
6823;SDS011;58633;49.470;11.004;2023-01-09T08:50:31;1.80;;;1.10;;
6823;SDS011;58633;49.470;11.004;2023-01-09T08:52:57;5.03;;;1.33;;
6823;SDS011;58633;49.470;11.004;2023-01-09T08:55:23;4.53;;;0.97;;
6823;SDS011;58633;49.470;11.004;2023-01-09T08:57:49;4.37;;;1.40;;
6823;SDS011;58633;49.470;11.004;2023-01-09T09:00:16;3.13;;;1.00;;
6823;SDS011;58633;49.470;11.004;2023-01-09T09:02:42;3.63;;;1.23;;
6823;SDS011;58633;49.470;11.004;2023-01-09T09:05:08;2.47;;;0.97;;
6823;SDS011;58633;49.470;11.004;2023-01-09T09:07:34;4.23;;;1.00;;
6823;SDS011;58633;49.470;11.004;2023-01-09T09:10:00;5.80;;;1.30;;
6823;SDS011;58633;49.470;11.004;2023-01-09T09:12:25;1.90;;;0.90;;
6823;SDS011;58633;49.470;11.004;2023-01-09T09:14:51;6.73;;;1.00;;
6823;SDS011;58633;49.470;11.004;2023-01-09T09:17:35;5.20;;;1.03;;
6823;SDS011;58633;49.470;11.004;2023-01-09T09:20:00;1.73;;;1.10;;
6823;SDS011;58633;49.470;11.004;2023-01-09T09:22:26;4.33;;;1.20;;
6823;SDS011;58633;49.470;11.004;2023-01-09T09:24:51;2.10;;;1.00;;
6823;SDS011;58633;49.470;11.004;2023-01-09T09:27:17;1.67;;;0.80;;
6823;SDS011;58633;49.470;11.004;2023-01-09T09:29:43;6.10;;;1.53;;
6823;SDS011;58633;49.470;11.004;2023-01-09T09:32:09;4.83;;;1.10;;
6823;SDS011;58633;49.470;11.004;2023-01-09T09:34:34;4.90;;;1.20;;
6823;SDS011;58633;49.470;11.004;2023-01-09T09:37:00;5.63;;;1.70;;
6823;SDS011;58633;49.470;11.004;2023-01-09T09:39:25;3.33;;;0.90;;
6823;SDS011;58633;49.470;11.004;2023-01-09T09:42:10;3.90;;;1.20;;
6823;SDS011;58633;49.470;11.004;2023-01-09T09:45:19;4.53;;;0.90;;
6823;SDS011;58633;49.470;11.004;2023-01-09T09:48:14;4.27;;;1.17;;
6823;SDS011;58633;49.470;11.004;2023-01-09T09:53:59;3.33;;;1.10;;
6823;SDS011;58633;49.470;11.004;2023-01-09T09:56:49;4.50;;;1.70;;
6823;SDS011;58633;49.470;11.004;2023-01-09T09:59:35;2.30;;;1.20;;
6823;SDS011;58633;49.470;11.004;2023-01-09T10:02:26;2.13;;;1.10;;
6823;SDS011;58633;49.470;11.004;2023-01-09T10:04:58;2.63;;;1.27;;
6823;SDS011;58633;49.470;11.004;2023-01-09T10:07:34;2.13;;;1.30;;
6823;SDS011;58633;49.470;11.004;2023-01-09T10:10:06;3.70;;;1.10;;
6823;SDS011;58633;49.470;11.004;2023-01-09T10:12:45;1.97;;;1.10;;
6823;SDS011;58633;49.470;11.004;2023-01-09T10:15:40;2.23;;;0.90;;
6823;SDS011;58633;49.470;11.004;2023-01-09T10:18:36;1.97;;;1.20;;
6823;SDS011;58633;49.470;11.004;2023-01-09T10:21:17;5.07;;;1.20;;
6823;SDS011;58633;49.470;11.004;2023-01-09T10:23:53;2.43;;;1.00;;
6823;SDS011;58633;49.470;11.004;2023-01-09T10:29:14;2.30;;;1.00;;
6823;SDS011;58633;49.470;11.004;2023-01-09T10:37:00;2.63;;;1.00;;
6823;SDS011;58633;49.470;11.004;2023-01-09T10:42:41;2.80;;;1.40;;
6823;SDS011;58633;49.470;11.004;2023-01-09T10:45:19;3.60;;;1.20;;
6823;SDS011;58633;49.470;11.004;2023-01-09T10:47:49;2.80;;;1.10;;
6823;SDS011;58633;49.470;11.004;2023-01-09T10:50:20;3.33;;;1.63;;
6823;SDS011;58633;49.470;11.004;2023-01-09T10:52:56;6.03;;;1.70;;
6823;SDS011;58633;49.470;11.004;2023-01-09T10:55:31;2.70;;;1.17;;
6823;SDS011;58633;49.470;11.004;2023-01-09T10:58:01;6.07;;;1.10;;
6823;SDS011;58633;49.470;11.004;2023-01-09T11:00:28;2.93;;;0.80;;
6823;SDS011;58633;49.470;11.004;2023-01-09T11:02:53;2.50;;;1.00;;
6823;SDS011;58633;49.470;11.004;2023-01-09T11:05:20;3.80;;;0.90;;
6823;SDS011;58633;49.470;11.004;2023-01-09T11:08:15;4.40;;;1.13;;
6823;SDS011;58633;49.470;11.004;2023-01-09T11:11:06;2.13;;;1.30;;
6823;SDS011;58633;49.470;11.004;2023-01-09T11:13:33;3.53;;;1.20;;
6823;SDS011;58633;49.470;11.004;2023-01-09T11:18:39;2.47;;;0.90;;
6823;SDS011;58633;49.470;11.004;2023-01-09T11:23:55;2.33;;;1.03;;
6823;SDS011;58633;49.470;11.004;2023-01-09T11:26:40;2.80;;;1.53;;
6823;SDS011;58633;49.470;11.004;2023-01-09T11:29:09;5.03;;;1.90;;
6823;SDS011;58633;49.470;11.004;2023-01-09T11:31:36;2.47;;;1.30;;
6823;SDS011;58633;49.470;11.004;2023-01-09T11:34:02;1.53;;;0.93;;
6823;SDS011;58633;49.470;11.004;2023-01-09T11:36:28;2.87;;;1.20;;
6823;SDS011;58633;49.470;11.004;2023-01-09T11:38:57;3.00;;;1.27;;
6823;SDS011;58633;49.470;11.004;2023-01-09T11:41:25;5.70;;;1.50;;
6823;SDS011;58633;49.470;11.004;2023-01-09T11:43:55;2.50;;;1.50;;
6823;SDS011;58633;49.470;11.004;2023-01-09T11:46:30;3.47;;;1.63;;
6823;SDS011;58633;49.470;11.004;2023-01-09T11:49:18;3.20;;;1.70;;
6823;SDS011;58633;49.470;11.004;2023-01-09T11:51:44;2.33;;;1.37;;
6823;SDS011;58633;49.470;11.004;2023-01-09T11:54:12;3.93;;;1.27;;
6823;SDS011;58633;49.470;11.004;2023-01-09T11:56:45;3.00;;;1.30;;
6823;SDS011;58633;49.470;11.004;2023-01-09T11:59:13;3.53;;;1.40;;
6823;SDS011;58633;49.470;11.004;2023-01-09T12:01:59;5.73;;;1.40;;
6823;SDS011;58633;49.470;11.004;2023-01-09T12:13:36;4.63;;;2.03;;
6823;SDS011;58633;49.470;11.004;2023-01-09T12:21:48;4.13;;;2.30;;
6823;SDS011;58633;49.470;11.004;2023-01-09T12:33:03;2.00;;;1.10;;
6823;SDS011;58633;49.470;11.004;2023-01-09T12:35:43;1.27;;;1.00;;
6823;SDS011;58633;49.470;11.004;2023-01-09T12:41:19;3.83;;;1.40;;
6823;SDS011;58633;49.470;11.004;2023-01-09T12:44:08;4.93;;;2.07;;
6823;SDS011;58633;49.470;11.004;2023-01-09T12:49:50;1.83;;;1.10;;
6823;SDS011;58633;49.470;11.004;2023-01-09T12:52:35;2.27;;;1.10;;
6823;SDS011;58633;49.470;11.004;2023-01-09T12:55:17;2.27;;;1.17;;
6823;SDS011;58633;49.470;11.004;2023-01-09T12:57:50;3.07;;;1.20;;
6823;SDS011;58633;49.470;11.004;2023-01-09T13:00:28;3.33;;;1.20;;
6823;SDS011;58633;49.470;11.004;2023-01-09T13:03:09;6.03;;;1.20;;
6823;SDS011;58633;49.470;11.004;2023-01-09T13:05:48;3.03;;;1.73;;
6823;SDS011;58633;49.470;11.004;2023-01-09T13:08:27;6.10;;;3.00;;
6823;SDS011;58633;49.470;11.004;2023-01-09T13:11:02;6.57;;;2.70;;
6823;SDS011;58633;49.470;11.004;2023-01-09T13:13:40;5.07;;;2.57;;
6823;SDS011;58633;49.470;11.004;2023-01-09T13:16:10;4.67;;;1.60;;
6823;SDS011;58633;49.470;11.004;2023-01-09T13:18:43;2.40;;;1.47;;
6823;SDS011;58633;49.470;11.004;2023-01-09T13:21:16;2.23;;;0.97;;
6823;SDS011;58633;49.470;11.004;2023-01-09T13:23:50;1.10;;;1.00;;
6823;SDS011;58633;49.470;11.004;2023-01-09T13:26:24;2.57;;;1.10;;
6823;SDS011;58633;49.470;11.004;2023-01-09T13:29:50;2.97;;;1.40;;
6823;SDS011;58633;49.470;11.004;2023-01-09T13:34:47;6.07;;;2.20;;
6823;SDS011;58633;49.470;11.004;2023-01-09T13:37:21;4.27;;;2.57;;
6823;SDS011;58633;49.470;11.004;2023-01-09T13:40:03;3.17;;;2.10;;
6823;SDS011;58633;49.470;11.004;2023-01-09T13:42:31;2.90;;;1.77;;
6823;SDS011;58633;49.470;11.004;2023-01-09T13:45:08;3.57;;;1.60;;
6823;SDS011;58633;49.470;11.004;2023-01-09T13:47:44;2.73;;;1.20;;
6823;SDS011;58633;49.470;11.004;2023-01-09T13:52:36;2.60;;;0.90;;
6823;SDS011;58633;49.470;11.004;2023-01-09T13:55:22;1.73;;;1.03;;
6823;SDS011;58633;49.470;11.004;2023-01-09T14:08:19;1.57;;;1.00;;
6823;SDS011;58633;49.470;11.004;2023-01-09T14:10:51;1.60;;;0.90;;
6823;SDS011;58633;49.470;11.004;2023-01-09T14:13:23;2.57;;;1.07;;
6823;SDS011;58633;49.470;11.004;2023-01-09T14:16:18;2.80;;;1.10;;
6823;SDS011;58633;49.470;11.004;2023-01-09T14:19:16;2.40;;;1.57;;
6823;SDS011;58633;49.470;11.004;2023-01-09T14:21:55;4.00;;;1.93;;
6823;SDS011;58633;49.470;11.004;2023-01-09T14:24:26;4.33;;;1.47;;
6823;SDS011;58633;49.470;11.004;2023-01-09T14:26:59;2.90;;;1.10;;
6823;SDS011;58633;49.470;11.004;2023-01-09T14:34:48;3.70;;;1.83;;
6823;SDS011;58633;49.470;11.004;2023-01-09T14:37:17;2.30;;;1.47;;
6823;SDS011;58633;49.470;11.004;2023-01-09T14:39:44;2.97;;;1.73;;
6823;SDS011;58633;49.470;11.004;2023-01-09T14:42:10;5.00;;;2.50;;
6823;SDS011;58633;49.470;11.004;2023-01-09T14:44:51;9.77;;;4.40;;
6823;SDS011;58633;49.470;11.004;2023-01-09T14:47:27;6.63;;;3.60;;
6823;SDS011;58633;49.470;11.004;2023-01-09T14:53:05;4.20;;;2.03;;
6823;SDS011;58633;49.470;11.004;2023-01-09T14:58:25;3.13;;;2.07;;
6823;SDS011;58633;49.470;11.004;2023-01-09T15:00:59;2.97;;;1.33;;
6823;SDS011;58633;49.470;11.004;2023-01-09T15:03:31;5.93;;;2.20;;
6823;SDS011;58633;49.470;11.004;2023-01-09T15:06:03;5.73;;;2.80;;
6823;SDS011;58633;49.470;11.004;2023-01-09T15:08:30;1.93;;;0.93;;
6823;SDS011;58633;49.470;11.004;2023-01-09T15:10:56;1.93;;;1.10;;
6823;SDS011;58633;49.470;11.004;2023-01-09T15:13:27;4.33;;;1.40;;
6823;SDS011;58633;49.470;11.004;2023-01-09T15:15:56;2.67;;;1.20;;
6823;SDS011;58633;49.470;11.004;2023-01-09T15:18:23;2.57;;;1.70;;
6823;SDS011;58633;49.470;11.004;2023-01-09T15:20:52;2.30;;;1.30;;
6823;SDS011;58633;49.470;11.004;2023-01-09T15:23:22;3.23;;;2.10;;
6823;SDS011;58633;49.470;11.004;2023-01-09T15:25:49;2.67;;;1.70;;
6823;SDS011;58633;49.470;11.004;2023-01-09T15:28:21;5.23;;;2.10;;
6823;SDS011;58633;49.470;11.004;2023-01-09T15:33:38;2.30;;;1.73;;
6823;SDS011;58633;49.470;11.004;2023-01-09T15:36:06;2.30;;;1.70;;
6823;SDS011;58633;49.470;11.004;2023-01-09T15:38:38;2.70;;;1.30;;
6823;SDS011;58633;49.470;11.004;2023-01-09T15:41:07;1.77;;;1.40;;
6823;SDS011;58633;49.470;11.004;2023-01-09T15:43:34;2.10;;;1.37;;
6823;SDS011;58633;49.470;11.004;2023-01-09T15:46:05;3.17;;;2.00;;
6823;SDS011;58633;49.470;11.004;2023-01-09T15:48:31;1.60;;;1.50;;
6823;SDS011;58633;49.470;11.004;2023-01-09T15:51:05;2.50;;;1.80;;
6823;SDS011;58633;49.470;11.004;2023-01-09T15:53:34;1.70;;;1.37;;
6823;SDS011;58633;49.470;11.004;2023-01-09T15:56:22;1.87;;;1.43;;
6823;SDS011;58633;49.470;11.004;2023-01-09T15:58:57;1.47;;;1.37;;
6823;SDS011;58633;49.470;11.004;2023-01-09T16:01:25;1.63;;;1.53;;
6823;SDS011;58633;49.470;11.004;2023-01-09T16:03:57;1.53;;;1.30;;
6823;SDS011;58633;49.470;11.004;2023-01-09T16:06:29;1.27;;;1.07;;
6823;SDS011;58633;49.470;11.004;2023-01-09T16:08:58;2.83;;;1.50;;
6823;SDS011;58633;49.470;11.004;2023-01-09T16:13:54;2.90;;;2.10;;
6823;SDS011;58633;49.470;11.004;2023-01-09T16:16:22;3.33;;;2.20;;
6823;SDS011;58633;49.470;11.004;2023-01-09T16:18:51;2.43;;;1.90;;
6823;SDS011;58633;49.470;11.004;2023-01-09T16:21:34;2.60;;;2.07;;
6823;SDS011;58633;49.470;11.004;2023-01-09T16:24:02;4.97;;;1.90;;
6823;SDS011;58633;49.470;11.004;2023-01-09T16:26:37;1.50;;;1.40;;
6823;SDS011;58633;49.470;11.004;2023-01-09T16:32:02;8.30;;;4.60;;
6823;SDS011;58633;49.470;11.004;2023-01-09T16:34:29;4.30;;;2.60;;
6823;SDS011;58633;49.470;11.004;2023-01-09T16:36:57;7.20;;;4.10;;
6823;SDS011;58633;49.470;11.004;2023-01-09T16:39:22;7.33;;;4.87;;
6823;SDS011;58633;49.470;11.004;2023-01-09T16:41:49;5.87;;;3.97;;
6823;SDS011;58633;49.470;11.004;2023-01-09T16:44:34;9.07;;;5.80;;
6823;SDS011;58633;49.470;11.004;2023-01-09T16:46:59;4.30;;;3.57;;
6823;SDS011;58633;49.470;11.004;2023-01-09T16:49:25;12.33;;;6.37;;
6823;SDS011;58633;49.470;11.004;2023-01-09T16:51:52;35.13;;;13.90;;